SARE

Resistencia International Airport

Resistencia, Argentina
TAF SARE 221100Z 2212/2312 07010KT CAVOK TX36/2218Z TN20/2308Z PROB30 TEMPO 2215/2221 9999 SCT035 FEW045TCU BECMG 2309/2311 9999 SCT025 BKN070
Issued Valid From Valid To
Jan-22 @ 11:00 UTC
(6 hours ago)
Jan-22 @ 12:00 UTC
(5 hours ago)
Jan-23 @ 12:00 UTC
(in 19 hours)
Jan-22 @ 12:00 to Jan-23 @ 09:00
TAF SARE 221100Z 2212/2312 07010KT CAVOK TX36/2218Z TN20/2308Z
Wind Visibility Clouds
70° at 10 knots 10,000+ meters
  • No significant clouds
Temporary  (Probability 30%) Jan-22 @ 15:00 to Jan-22 @ 21:00
PROB30 TEMPO 2215/2221 9999 SCT035 FEW045TCU
Visibility Clouds
10,000+ meters
  • Scattered at 3,500' AGL
  • Few at 4,500' AGL
Becoming Jan-23 @ 09:00 to Jan-23 @ 12:00
BECMG 2309/2311 9999 SCT025 BKN070
Wind Visibility Clouds
70° at 10 knots 10,000+ meters
  • Scattered at 2,500' AGL
  • Broken at 7,000' AGL
TAF SARE 221100Z 2212/2312 07010KT CAVOK TX36/2218Z TN20/2308Z PROB30 TEMPO 2215/2221 9999 SCT035 FEW045TCU BECMG 2309/2311 9999 SCT025 BKN070
Issued Jan-22 @ 11:00 UTC
(6 hours ago)
Valid From Jan-22 @ 12:00 UTC
(5 hours ago)
Valid To Jan-23 @ 12:00 UTC
(in 19 hours)
Jan-22 @ 12:00 - Jan-23 @ 09:00
Wind Visibility
70° at 10 knots 10,000+ meters
Clouds
  • No significant clouds
Probability 30% Temporary Jan-22 @ 15:00 - Jan-22 @ 21:00
Clouds
  • Scattered at 3,500' AGL
  • Few at 4,500' AGL
Becoming Jan-23 @ 09:00 - Jan-23 @ 12:00
Wind Visibility
70° at 10 knots 10,000+ meters
Clouds
  • Scattered at 2,500' AGL
  • Broken at 7,000' AGL